sensor_id;sensor_type;location;lat;lon;timestamp;P1;durP1;ratioP1;P2;durP2;ratioP2
846;SDS011;410;48.954;9.474;2023-07-29T00:00:05;4.80;;;4.30;;
846;SDS011;410;48.954;9.474;2023-07-29T00:02:15;5.10;;;4.60;;
846;SDS011;410;48.954;9.474;2023-07-29T00:04:18;4.90;;;4.37;;
846;SDS011;410;48.954;9.474;2023-07-29T00:06:22;6.17;;;4.53;;
846;SDS011;410;48.954;9.474;2023-07-29T00:08:25;5.57;;;4.50;;
846;SDS011;410;48.954;9.474;2023-07-29T00:10:28;10.90;;;4.83;;
846;SDS011;410;48.954;9.474;2023-07-29T00:12:32;5.60;;;4.70;;
846;SDS011;410;48.954;9.474;2023-07-29T00:14:36;5.50;;;4.60;;
846;SDS011;410;48.954;9.474;2023-07-29T00:16:39;4.73;;;4.20;;
846;SDS011;410;48.954;9.474;2023-07-29T00:18:42;5.23;;;4.50;;
846;SDS011;410;48.954;9.474;2023-07-29T00:20:46;5.83;;;4.20;;
846;SDS011;410;48.954;9.474;2023-07-29T00:22:50;4.90;;;4.40;;
846;SDS011;410;48.954;9.474;2023-07-29T00:24:55;6.37;;;4.80;;
846;SDS011;410;48.954;9.474;2023-07-29T00:26:59;5.97;;;4.50;;
846;SDS011;410;48.954;9.474;2023-07-29T00:29:03;6.23;;;4.10;;
846;SDS011;410;48.954;9.474;2023-07-29T00:31:06;4.80;;;3.83;;
846;SDS011;410;48.954;9.474;2023-07-29T00:33:10;4.53;;;3.70;;
846;SDS011;410;48.954;9.474;2023-07-29T00:35:12;5.07;;;4.40;;
846;SDS011;410;48.954;9.474;2023-07-29T00:37:16;5.10;;;4.20;;
846;SDS011;410;48.954;9.474;2023-07-29T00:39:20;5.80;;;3.53;;
846;SDS011;410;48.954;9.474;2023-07-29T00:41:24;4.27;;;3.50;;
846;SDS011;410;48.954;9.474;2023-07-29T00:43:28;5.20;;;4.00;;
846;SDS011;410;48.954;9.474;2023-07-29T00:45:33;4.43;;;3.90;;
846;SDS011;410;48.954;9.474;2023-07-29T00:47:37;4.87;;;3.87;;
846;SDS011;410;48.954;9.474;2023-07-29T00:49:40;5.10;;;3.63;;
846;SDS011;410;48.954;9.474;2023-07-29T00:51:43;6.00;;;5.33;;
846;SDS011;410;48.954;9.474;2023-07-29T00:53:46;4.73;;;3.00;;
846;SDS011;410;48.954;9.474;2023-07-29T00:55:50;4.37;;;3.10;;
846;SDS011;410;48.954;9.474;2023-07-29T00:57:53;4.57;;;3.30;;
846;SDS011;410;48.954;9.474;2023-07-29T00:59:56;4.07;;;3.37;;
846;SDS011;410;48.954;9.474;2023-07-29T01:02:01;4.80;;;3.27;;
846;SDS011;410;48.954;9.474;2023-07-29T01:04:05;4.23;;;3.17;;
846;SDS011;410;48.954;9.474;2023-07-29T01:06:12;2.63;;;2.23;;
846;SDS011;410;48.954;9.474;2023-07-29T01:08:21;5.20;;;3.10;;
846;SDS011;410;48.954;9.474;2023-07-29T01:10:31;6.00;;;3.83;;
846;SDS011;410;48.954;9.474;2023-07-29T01:12:41;5.50;;;4.00;;
846;SDS011;410;48.954;9.474;2023-07-29T01:14:55;5.20;;;3.47;;
846;SDS011;410;48.954;9.474;2023-07-29T01:17:03;5.57;;;4.17;;
846;SDS011;410;48.954;9.474;2023-07-29T01:19:07;5.10;;;4.17;;
846;SDS011;410;48.954;9.474;2023-07-29T01:21:17;4.90;;;3.70;;
846;SDS011;410;48.954;9.474;2023-07-29T01:23:24;5.97;;;4.00;;
846;SDS011;410;48.954;9.474;2023-07-29T01:25:28;4.63;;;3.87;;
846;SDS011;410;48.954;9.474;2023-07-29T01:27:30;4.23;;;3.80;;
846;SDS011;410;48.954;9.474;2023-07-29T01:29:34;4.43;;;3.17;;
846;SDS011;410;48.954;9.474;2023-07-29T01:31:38;4.20;;;3.30;;
846;SDS011;410;48.954;9.474;2023-07-29T01:33:46;4.73;;;3.73;;
846;SDS011;410;48.954;9.474;2023-07-29T01:35:52;7.13;;;4.63;;
846;SDS011;410;48.954;9.474;2023-07-29T01:38:05;5.90;;;4.53;;
846;SDS011;410;48.954;9.474;2023-07-29T01:40:11;5.00;;;4.00;;
846;SDS011;410;48.954;9.474;2023-07-29T01:42:14;5.00;;;3.90;;
846;SDS011;410;48.954;9.474;2023-07-29T01:44:18;4.57;;;4.03;;
846;SDS011;410;48.954;9.474;2023-07-29T01:46:21;5.27;;;3.90;;
846;SDS011;410;48.954;9.474;2023-07-29T01:48:24;5.33;;;4.00;;
846;SDS011;410;48.954;9.474;2023-07-29T01:50:29;5.23;;;3.70;;
846;SDS011;410;48.954;9.474;2023-07-29T01:52:33;3.70;;;3.17;;
846;SDS011;410;48.954;9.474;2023-07-29T01:54:37;4.63;;;3.93;;
846;SDS011;410;48.954;9.474;2023-07-29T01:56:41;4.87;;;4.00;;
846;SDS011;410;48.954;9.474;2023-07-29T01:58:43;5.10;;;3.90;;
846;SDS011;410;48.954;9.474;2023-07-29T02:00:46;4.30;;;3.77;;
846;SDS011;410;48.954;9.474;2023-07-29T02:02:50;4.47;;;3.80;;
846;SDS011;410;48.954;9.474;2023-07-29T02:04:53;5.27;;;3.90;;
846;SDS011;410;48.954;9.474;2023-07-29T02:06:57;7.27;;;4.00;;
846;SDS011;410;48.954;9.474;2023-07-29T02:09:00;5.37;;;3.60;;
846;SDS011;410;48.954;9.474;2023-07-29T02:11:06;5.77;;;3.93;;
846;SDS011;410;48.954;9.474;2023-07-29T02:13:10;4.77;;;4.27;;
846;SDS011;410;48.954;9.474;2023-07-29T02:15:14;5.17;;;4.30;;
846;SDS011;410;48.954;9.474;2023-07-29T02:17:17;5.73;;;4.17;;
846;SDS011;410;48.954;9.474;2023-07-29T02:19:20;6.07;;;3.93;;
846;SDS011;410;48.954;9.474;2023-07-29T02:21:22;4.90;;;4.10;;
846;SDS011;410;48.954;9.474;2023-07-29T02:23:25;6.70;;;4.10;;
846;SDS011;410;48.954;9.474;2023-07-29T02:25:28;7.10;;;4.47;;
846;SDS011;410;48.954;9.474;2023-07-29T02:27:31;6.50;;;4.30;;
846;SDS011;410;48.954;9.474;2023-07-29T02:29:36;5.30;;;4.43;;
846;SDS011;410;48.954;9.474;2023-07-29T02:31:39;5.77;;;4.37;;
846;SDS011;410;48.954;9.474;2023-07-29T02:33:43;5.40;;;4.27;;
846;SDS011;410;48.954;9.474;2023-07-29T02:35:46;4.53;;;3.83;;
846;SDS011;410;48.954;9.474;2023-07-29T02:37:49;4.90;;;3.90;;
846;SDS011;410;48.954;9.474;2023-07-29T02:39:54;5.13;;;3.17;;
846;SDS011;410;48.954;9.474;2023-07-29T02:41:58;4.93;;;4.00;;
846;SDS011;410;48.954;9.474;2023-07-29T02:44:01;5.33;;;4.00;;
846;SDS011;410;48.954;9.474;2023-07-29T02:46:06;6.70;;;4.30;;
846;SDS011;410;48.954;9.474;2023-07-29T02:48:09;4.43;;;3.67;;
846;SDS011;410;48.954;9.474;2023-07-29T02:50:12;4.20;;;3.10;;
846;SDS011;410;48.954;9.474;2023-07-29T02:52:15;5.30;;;4.10;;
846;SDS011;410;48.954;9.474;2023-07-29T02:54:18;4.60;;;3.70;;
846;SDS011;410;48.954;9.474;2023-07-29T02:56:22;4.53;;;3.90;;
846;SDS011;410;48.954;9.474;2023-07-29T02:58:25;4.43;;;3.57;;
846;SDS011;410;48.954;9.474;2023-07-29T03:00:30;5.60;;;4.03;;
846;SDS011;410;48.954;9.474;2023-07-29T03:02:36;4.40;;;3.73;;
846;SDS011;410;48.954;9.474;2023-07-29T03:04:39;5.43;;;3.90;;
846;SDS011;410;48.954;9.474;2023-07-29T03:06:42;5.10;;;3.70;;
846;SDS011;410;48.954;9.474;2023-07-29T03:08:45;5.17;;;3.77;;
846;SDS011;410;48.954;9.474;2023-07-29T03:10:49;5.60;;;4.10;;
846;SDS011;410;48.954;9.474;2023-07-29T03:12:53;7.83;;;4.70;;
846;SDS011;410;48.954;9.474;2023-07-29T03:14:56;4.70;;;3.90;;
846;SDS011;410;48.954;9.474;2023-07-29T03:17:02;5.60;;;4.30;;
846;SDS011;410;48.954;9.474;2023-07-29T03:19:07;5.60;;;3.83;;
846;SDS011;410;48.954;9.474;2023-07-29T03:21:11;6.10;;;4.07;;
846;SDS011;410;48.954;9.474;2023-07-29T03:23:14;4.10;;;3.60;;
846;SDS011;410;48.954;9.474;2023-07-29T03:25:17;5.90;;;4.33;;
846;SDS011;410;48.954;9.474;2023-07-29T03:27:20;12.83;;;4.10;;
846;SDS011;410;48.954;9.474;2023-07-29T03:29:23;4.43;;;3.40;;
846;SDS011;410;48.954;9.474;2023-07-29T03:31:27;5.10;;;3.97;;
846;SDS011;410;48.954;9.474;2023-07-29T03:33:29;5.20;;;4.00;;
846;SDS011;410;48.954;9.474;2023-07-29T03:35:34;5.60;;;4.10;;
846;SDS011;410;48.954;9.474;2023-07-29T03:37:37;8.20;;;4.30;;
846;SDS011;410;48.954;9.474;2023-07-29T03:39:40;4.57;;;3.93;;
846;SDS011;410;48.954;9.474;2023-07-29T03:41:43;9.70;;;4.43;;
846;SDS011;410;48.954;9.474;2023-07-29T03:43:46;10.47;;;4.43;;
846;SDS011;410;48.954;9.474;2023-07-29T03:45:49;4.23;;;3.63;;
846;SDS011;410;48.954;9.474;2023-07-29T03:47:52;6.37;;;4.37;;
846;SDS011;410;48.954;9.474;2023-07-29T03:49:55;4.70;;;4.00;;
846;SDS011;410;48.954;9.474;2023-07-29T03:52:00;5.03;;;4.30;;
846;SDS011;410;48.954;9.474;2023-07-29T03:54:03;4.40;;;3.90;;
846;SDS011;410;48.954;9.474;2023-07-29T03:56:06;5.20;;;4.20;;
846;SDS011;410;48.954;9.474;2023-07-29T03:58:08;5.30;;;3.80;;
846;SDS011;410;48.954;9.474;2023-07-29T04:00:12;5.10;;;4.00;;
846;SDS011;410;48.954;9.474;2023-07-29T04:02:20;5.70;;;3.80;;
846;SDS011;410;48.954;9.474;2023-07-29T04:04:24;4.90;;;3.90;;
846;SDS011;410;48.954;9.474;2023-07-29T04:06:27;4.60;;;3.90;;
846;SDS011;410;48.954;9.474;2023-07-29T04:08:31;4.80;;;3.50;;
846;SDS011;410;48.954;9.474;2023-07-29T04:10:34;4.30;;;3.77;;
846;SDS011;410;48.954;9.474;2023-07-29T04:12:37;5.30;;;4.10;;
846;SDS011;410;48.954;9.474;2023-07-29T04:14:40;8.07;;;4.13;;
846;SDS011;410;48.954;9.474;2023-07-29T04:16:43;5.53;;;4.23;;
846;SDS011;410;48.954;9.474;2023-07-29T04:18:47;4.63;;;3.90;;
846;SDS011;410;48.954;9.474;2023-07-29T04:20:50;7.30;;;4.10;;
846;SDS011;410;48.954;9.474;2023-07-29T04:22:52;7.53;;;4.10;;
846;SDS011;410;48.954;9.474;2023-07-29T04:24:57;5.30;;;3.97;;
846;SDS011;410;48.954;9.474;2023-07-29T04:27:00;5.30;;;4.63;;
846;SDS011;410;48.954;9.474;2023-07-29T04:29:03;6.17;;;3.80;;
846;SDS011;410;48.954;9.474;2023-07-29T04:31:06;3.93;;;3.53;;
846;SDS011;410;48.954;9.474;2023-07-29T04:33:08;11.70;;;6.40;;
846;SDS011;410;48.954;9.474;2023-07-29T04:35:12;5.90;;;4.27;;
846;SDS011;410;48.954;9.474;2023-07-29T04:37:16;4.23;;;3.30;;
846;SDS011;410;48.954;9.474;2023-07-29T04:39:19;4.43;;;4.00;;
846;SDS011;410;48.954;9.474;2023-07-29T04:41:23;3.70;;;2.93;;
846;SDS011;410;48.954;9.474;2023-07-29T04:43:27;3.63;;;3.20;;
846;SDS011;410;48.954;9.474;2023-07-29T04:45:30;3.73;;;3.30;;
846;SDS011;410;48.954;9.474;2023-07-29T04:47:34;4.00;;;3.23;;
846;SDS011;410;48.954;9.474;2023-07-29T04:49:37;4.90;;;3.33;;
846;SDS011;410;48.954;9.474;2023-07-29T04:51:39;3.80;;;3.23;;
846;SDS011;410;48.954;9.474;2023-07-29T04:53:43;4.73;;;3.03;;
846;SDS011;410;48.954;9.474;2023-07-29T04:55:47;4.20;;;3.67;;
846;SDS011;410;48.954;9.474;2023-07-29T04:57:52;3.60;;;3.10;;
846;SDS011;410;48.954;9.474;2023-07-29T04:59:55;5.17;;;3.77;;
846;SDS011;410;48.954;9.474;2023-07-29T05:01:58;4.40;;;3.17;;
846;SDS011;410;48.954;9.474;2023-07-29T05:04:03;4.37;;;3.03;;
846;SDS011;410;48.954;9.474;2023-07-29T05:06:06;2.80;;;2.10;;
846;SDS011;410;48.954;9.474;2023-07-29T05:08:09;2.97;;;2.47;;
846;SDS011;410;48.954;9.474;2023-07-29T05:10:12;4.77;;;3.10;;
846;SDS011;410;48.954;9.474;2023-07-29T05:12:15;3.97;;;2.83;;
846;SDS011;410;48.954;9.474;2023-07-29T05:14:20;4.63;;;3.20;;
846;SDS011;410;48.954;9.474;2023-07-29T05:16:23;4.73;;;4.33;;
846;SDS011;410;48.954;9.474;2023-07-29T05:18:25;3.47;;;2.73;;
846;SDS011;410;48.954;9.474;2023-07-29T05:20:28;3.50;;;2.60;;
846;SDS011;410;48.954;9.474;2023-07-29T05:22:31;4.63;;;2.90;;
846;SDS011;410;48.954;9.474;2023-07-29T05:24:35;4.43;;;3.33;;
846;SDS011;410;48.954;9.474;2023-07-29T05:26:38;3.20;;;2.80;;
846;SDS011;410;48.954;9.474;2023-07-29T05:28:41;4.53;;;2.93;;
846;SDS011;410;48.954;9.474;2023-07-29T05:30:45;3.93;;;3.20;;
846;SDS011;410;48.954;9.474;2023-07-29T05:32:49;4.10;;;3.27;;
846;SDS011;410;48.954;9.474;2023-07-29T05:34:52;4.10;;;2.97;;
846;SDS011;410;48.954;9.474;2023-07-29T05:36:57;3.57;;;2.70;;
846;SDS011;410;48.954;9.474;2023-07-29T05:39:00;4.97;;;2.03;;
846;SDS011;410;48.954;9.474;2023-07-29T05:41:03;3.67;;;1.93;;
846;SDS011;410;48.954;9.474;2023-07-29T05:43:06;3.80;;;2.40;;
846;SDS011;410;48.954;9.474;2023-07-29T05:45:09;3.70;;;1.83;;
846;SDS011;410;48.954;9.474;2023-07-29T05:47:14;2.70;;;1.70;;
846;SDS011;410;48.954;9.474;2023-07-29T05:49:17;2.80;;;1.80;;
846;SDS011;410;48.954;9.474;2023-07-29T05:51:21;5.07;;;2.20;;
846;SDS011;410;48.954;9.474;2023-07-29T05:53:24;2.50;;;1.70;;
846;SDS011;410;48.954;9.474;2023-07-29T05:55:27;2.63;;;1.73;;
846;SDS011;410;48.954;9.474;2023-07-29T05:57:30;2.10;;;1.70;;
846;SDS011;410;48.954;9.474;2023-07-29T05:59:34;2.20;;;1.50;;
846;SDS011;410;48.954;9.474;2023-07-29T06:01:37;2.43;;;1.70;;
846;SDS011;410;48.954;9.474;2023-07-29T06:03:42;2.40;;;1.47;;
846;SDS011;410;48.954;9.474;2023-07-29T06:05:48;2.30;;;1.60;;
846;SDS011;410;48.954;9.474;2023-07-29T06:07:55;3.07;;;1.60;;
846;SDS011;410;48.954;9.474;2023-07-29T06:09:58;4.60;;;1.90;;
846;SDS011;410;48.954;9.474;2023-07-29T06:12:01;2.73;;;1.60;;
846;SDS011;410;48.954;9.474;2023-07-29T06:14:04;2.63;;;1.60;;
846;SDS011;410;48.954;9.474;2023-07-29T06:16:08;2.53;;;1.60;;
846;SDS011;410;48.954;9.474;2023-07-29T06:18:12;1.97;;;1.40;;
846;SDS011;410;48.954;9.474;2023-07-29T06:20:17;3.40;;;2.80;;
846;SDS011;410;48.954;9.474;2023-07-29T06:22:20;3.10;;;1.67;;
846;SDS011;410;48.954;9.474;2023-07-29T06:24:23;2.10;;;1.40;;
846;SDS011;410;48.954;9.474;2023-07-29T06:26:26;2.40;;;1.70;;
846;SDS011;410;48.954;9.474;2023-07-29T06:28:29;2.27;;;1.67;;
846;SDS011;410;48.954;9.474;2023-07-29T06:30:33;2.20;;;1.50;;
846;SDS011;410;48.954;9.474;2023-07-29T06:32:35;2.50;;;1.80;;
846;SDS011;410;48.954;9.474;2023-07-29T06:34:38;2.33;;;1.47;;
846;SDS011;410;48.954;9.474;2023-07-29T06:36:43;2.40;;;1.53;;
846;SDS011;410;48.954;9.474;2023-07-29T06:38:46;3.43;;;2.70;;
846;SDS011;410;48.954;9.474;2023-07-29T06:40:50;4.00;;;2.50;;
846;SDS011;410;48.954;9.474;2023-07-29T06:42:54;5.43;;;3.97;;
846;SDS011;410;48.954;9.474;2023-07-29T06:44:57;2.87;;;2.07;;
846;SDS011;410;48.954;9.474;2023-07-29T06:47:00;1.90;;;1.30;;
846;SDS011;410;48.954;9.474;2023-07-29T06:49:05;4.37;;;2.10;;
846;SDS011;410;48.954;9.474;2023-07-29T06:51:08;4.43;;;1.60;;
846;SDS011;410;48.954;9.474;2023-07-29T06:53:13;2.73;;;1.73;;
846;SDS011;410;48.954;9.474;2023-07-29T06:55:16;2.67;;;1.77;;
846;SDS011;410;48.954;9.474;2023-07-29T06:57:19;2.93;;;1.50;;
846;SDS011;410;48.954;9.474;2023-07-29T06:59:22;2.37;;;1.50;;
846;SDS011;410;48.954;9.474;2023-07-29T07:01:27;2.70;;;1.83;;
846;SDS011;410;48.954;9.474;2023-07-29T07:03:31;2.87;;;1.60;;
846;SDS011;410;48.954;9.474;2023-07-29T07:05:34;1.93;;;1.53;;
846;SDS011;410;48.954;9.474;2023-07-29T07:07:37;3.47;;;1.70;;
846;SDS011;410;48.954;9.474;2023-07-29T07:09:41;2.30;;;1.70;;
846;SDS011;410;48.954;9.474;2023-07-29T07:11:45;2.70;;;1.70;;
846;SDS011;410;48.954;9.474;2023-07-29T07:13:48;2.40;;;1.70;;
846;SDS011;410;48.954;9.474;2023-07-29T07:15:53;2.00;;;1.57;;
846;SDS011;410;48.954;9.474;2023-07-29T07:17:56;2.57;;;1.50;;
846;SDS011;410;48.954;9.474;2023-07-29T07:19:59;2.73;;;1.50;;
846;SDS011;410;48.954;9.474;2023-07-29T07:22:02;2.90;;;1.83;;
846;SDS011;410;48.954;9.474;2023-07-29T07:24:06;1.80;;;1.43;;
846;SDS011;410;48.954;9.474;2023-07-29T07:26:11;2.40;;;1.93;;
846;SDS011;410;48.954;9.474;2023-07-29T07:28:14;2.13;;;1.63;;
846;SDS011;410;48.954;9.474;2023-07-29T07:30:18;2.23;;;1.70;;
846;SDS011;410;48.954;9.474;2023-07-29T07:32:21;2.30;;;1.50;;
846;SDS011;410;48.954;9.474;2023-07-29T07:34:24;2.10;;;1.60;;
846;SDS011;410;48.954;9.474;2023-07-29T07:36:28;2.47;;;1.63;;
846;SDS011;410;48.954;9.474;2023-07-29T07:38:31;2.30;;;1.60;;
846;SDS011;410;48.954;9.474;2023-07-29T07:40:34;2.27;;;1.30;;
846;SDS011;410;48.954;9.474;2023-07-29T07:42:39;2.10;;;1.43;;
846;SDS011;410;48.954;9.474;2023-07-29T07:44:42;2.53;;;1.83;;
846;SDS011;410;48.954;9.474;2023-07-29T07:46:45;2.23;;;1.77;;
846;SDS011;410;48.954;9.474;2023-07-29T07:48:48;2.97;;;1.60;;
846;SDS011;410;48.954;9.474;2023-07-29T07:50:51;2.50;;;1.80;;
846;SDS011;410;48.954;9.474;2023-07-29T07:52:55;2.20;;;1.70;;
846;SDS011;410;48.954;9.474;2023-07-29T07:54:58;2.03;;;1.50;;
846;SDS011;410;48.954;9.474;2023-07-29T07:57:01;2.67;;;1.87;;
846;SDS011;410;48.954;9.474;2023-07-29T07:59:05;2.70;;;2.03;;
846;SDS011;410;48.954;9.474;2023-07-29T08:01:08;2.70;;;2.20;;
846;SDS011;410;48.954;9.474;2023-07-29T08:03:12;2.33;;;1.83;;
846;SDS011;410;48.954;9.474;2023-07-29T08:05:16;2.87;;;2.27;;
846;SDS011;410;48.954;9.474;2023-07-29T08:07:19;2.67;;;1.90;;
846;SDS011;410;48.954;9.474;2023-07-29T08:09:23;2.30;;;1.80;;
846;SDS011;410;48.954;9.474;2023-07-29T08:11:26;3.90;;;1.60;;
846;SDS011;410;48.954;9.474;2023-07-29T08:13:29;2.30;;;1.80;;
846;SDS011;410;48.954;9.474;2023-07-29T08:15:33;2.80;;;2.30;;
846;SDS011;410;48.954;9.474;2023-07-29T08:17:37;3.10;;;1.80;;
846;SDS011;410;48.954;9.474;2023-07-29T08:19:40;4.10;;;2.00;;
846;SDS011;410;48.954;9.474;2023-07-29T08:21:44;3.33;;;1.97;;
846;SDS011;410;48.954;9.474;2023-07-29T08:23:47;2.20;;;1.53;;
846;SDS011;410;48.954;9.474;2023-07-29T08:25:53;2.47;;;1.70;;
846;SDS011;410;48.954;9.474;2023-07-29T08:28:02;3.47;;;1.70;;
846;SDS011;410;48.954;9.474;2023-07-29T08:30:07;2.33;;;1.57;;
846;SDS011;410;48.954;9.474;2023-07-29T08:32:12;5.03;;;3.17;;
846;SDS011;410;48.954;9.474;2023-07-29T08:34:15;4.67;;;3.40;;
846;SDS011;410;48.954;9.474;2023-07-29T08:36:18;3.50;;;2.10;;
846;SDS011;410;48.954;9.474;2023-07-29T08:38:22;3.03;;;2.30;;
846;SDS011;410;48.954;9.474;2023-07-29T08:40:30;2.40;;;1.77;;
846;SDS011;410;48.954;9.474;2023-07-29T08:42:34;3.37;;;1.73;;
846;SDS011;410;48.954;9.474;2023-07-29T08:44:40;2.67;;;1.87;;
846;SDS011;410;48.954;9.474;2023-07-29T08:46:44;3.10;;;1.60;;
846;SDS011;410;48.954;9.474;2023-07-29T08:48:50;2.30;;;1.47;;
846;SDS011;410;48.954;9.474;2023-07-29T08:50:54;2.00;;;1.40;;
846;SDS011;410;48.954;9.474;2023-07-29T08:53:00;1.87;;;1.33;;
846;SDS011;410;48.954;9.474;2023-07-29T08:55:05;2.57;;;1.27;;
846;SDS011;410;48.954;9.474;2023-07-29T08:57:08;2.17;;;1.40;;
846;SDS011;410;48.954;9.474;2023-07-29T08:59:11;1.80;;;1.23;;
846;SDS011;410;48.954;9.474;2023-07-29T09:01:15;2.23;;;1.30;;
846;SDS011;410;48.954;9.474;2023-07-29T09:03:20;2.00;;;1.40;;
846;SDS011;410;48.954;9.474;2023-07-29T09:05:25;1.83;;;1.50;;
846;SDS011;410;48.954;9.474;2023-07-29T09:07:28;2.60;;;1.80;;
846;SDS011;410;48.954;9.474;2023-07-29T09:09:32;4.80;;;3.50;;
846;SDS011;410;48.954;9.474;2023-07-29T09:11:35;2.27;;;1.67;;
846;SDS011;410;48.954;9.474;2023-07-29T09:13:38;2.07;;;1.17;;
846;SDS011;410;48.954;9.474;2023-07-29T09:15:42;2.13;;;1.40;;
846;SDS011;410;48.954;9.474;2023-07-29T09:17:45;2.47;;;1.40;;
846;SDS011;410;48.954;9.474;2023-07-29T09:19:48;1.80;;;1.30;;
846;SDS011;410;48.954;9.474;2023-07-29T09:21:53;2.20;;;1.40;;
846;SDS011;410;48.954;9.474;2023-07-29T09:23:56;2.43;;;1.40;;
846;SDS011;410;48.954;9.474;2023-07-29T09:26:01;3.30;;;1.53;;
846;SDS011;410;48.954;9.474;2023-07-29T09:28:09;4.80;;;1.20;;
846;SDS011;410;48.954;9.474;2023-07-29T09:30:15;2.17;;;1.50;;
846;SDS011;410;48.954;9.474;2023-07-29T09:32:24;2.30;;;1.33;;
846;SDS011;410;48.954;9.474;2023-07-29T09:34:28;2.47;;;1.50;;
846;SDS011;410;48.954;9.474;2023-07-29T09:36:33;3.00;;;1.30;;
846;SDS011;410;48.954;9.474;2023-07-29T09:38:39;2.20;;;1.30;;
846;SDS011;410;48.954;9.474;2023-07-29T09:40:42;1.90;;;1.20;;
846;SDS011;410;48.954;9.474;2023-07-29T09:42:47;1.93;;;1.30;;
846;SDS011;410;48.954;9.474;2023-07-29T09:44:52;3.37;;;1.40;;
846;SDS011;410;48.954;9.474;2023-07-29T09:46:55;3.20;;;1.40;;
846;SDS011;410;48.954;9.474;2023-07-29T09:48:59;2.00;;;1.20;;
846;SDS011;410;48.954;9.474;2023-07-29T09:51:09;2.53;;;1.50;;
846;SDS011;410;48.954;9.474;2023-07-29T09:53:13;2.07;;;1.57;;
846;SDS011;410;48.954;9.474;2023-07-29T09:55:21;2.88;;;1.40;;
846;SDS011;410;48.954;9.474;2023-07-29T09:57:25;2.20;;;1.50;;
846;SDS011;410;48.954;9.474;2023-07-29T09:59:33;2.23;;;1.30;;
846;SDS011;410;48.954;9.474;2023-07-29T10:01:36;2.23;;;1.47;;
846;SDS011;410;48.954;9.474;2023-07-29T10:03:40;1.80;;;1.30;;
846;SDS011;410;48.954;9.474;2023-07-29T10:05:44;4.63;;;2.70;;
846;SDS011;410;48.954;9.474;2023-07-29T10:07:48;2.10;;;1.40;;
846;SDS011;410;48.954;9.474;2023-07-29T10:09:51;1.83;;;1.47;;
846;SDS011;410;48.954;9.474;2023-07-29T10:11:56;1.73;;;1.30;;
846;SDS011;410;48.954;9.474;2023-07-29T10:14:00;2.73;;;1.40;;
846;SDS011;410;48.954;9.474;2023-07-29T10:16:09;2.50;;;1.53;;
846;SDS011;410;48.954;9.474;2023-07-29T10:18:13;5.53;;;1.90;;
846;SDS011;410;48.954;9.474;2023-07-29T10:20:16;2.53;;;1.50;;
846;SDS011;410;48.954;9.474;2023-07-29T10:22:20;4.00;;;1.50;;
846;SDS011;410;48.954;9.474;2023-07-29T10:24:24;2.57;;;1.40;;
846;SDS011;410;48.954;9.474;2023-07-29T10:26:30;4.00;;;1.60;;
846;SDS011;410;48.954;9.474;2023-07-29T10:28:37;3.57;;;1.53;;
846;SDS011;410;48.954;9.474;2023-07-29T10:30:43;1.90;;;1.30;;
846;SDS011;410;48.954;9.474;2023-07-29T10:32:46;3.17;;;1.20;;
846;SDS011;410;48.954;9.474;2023-07-29T10:34:51;3.23;;;1.33;;
846;SDS011;410;48.954;9.474;2023-07-29T10:36:54;2.10;;;1.40;;
846;SDS011;410;48.954;9.474;2023-07-29T10:38:57;2.70;;;1.37;;
846;SDS011;410;48.954;9.474;2023-07-29T10:41:01;3.10;;;1.30;;
846;SDS011;410;48.954;9.474;2023-07-29T10:43:10;3.40;;;1.47;;
846;SDS011;410;48.954;9.474;2023-07-29T10:45:20;1.83;;;1.33;;
846;SDS011;410;48.954;9.474;2023-07-29T10:47:24;4.37;;;1.50;;
846;SDS011;410;48.954;9.474;2023-07-29T10:49:29;2.37;;;1.40;;
846;SDS011;410;48.954;9.474;2023-07-29T10:51:34;2.50;;;1.50;;
846;SDS011;410;48.954;9.474;2023-07-29T10:53:38;4.60;;;3.50;;
846;SDS011;410;48.954;9.474;2023-07-29T10:55:41;2.60;;;1.77;;
846;SDS011;410;48.954;9.474;2023-07-29T10:57:46;2.53;;;1.60;;
846;SDS011;410;48.954;9.474;2023-07-29T10:59:53;3.43;;;1.40;;
846;SDS011;410;48.954;9.474;2023-07-29T11:01:59;2.17;;;1.53;;
846;SDS011;410;48.954;9.474;2023-07-29T11:06:29;2.17;;;1.40;;
846;SDS011;410;48.954;9.474;2023-07-29T11:08:33;1.67;;;1.23;;
846;SDS011;410;48.954;9.474;2023-07-29T11:10:42;2.23;;;1.50;;
846;SDS011;410;48.954;9.474;2023-07-29T11:12:45;3.33;;;1.20;;
846;SDS011;410;48.954;9.474;2023-07-29T11:14:49;2.40;;;1.53;;
846;SDS011;410;48.954;9.474;2023-07-29T11:16:52;2.83;;;1.27;;
846;SDS011;410;48.954;9.474;2023-07-29T11:18:56;2.50;;;1.60;;
846;SDS011;410;48.954;9.474;2023-07-29T11:21:01;2.27;;;1.50;;
846;SDS011;410;48.954;9.474;2023-07-29T11:23:05;3.73;;;1.50;;
846;SDS011;410;48.954;9.474;2023-07-29T11:25:08;5.20;;;1.70;;
846;SDS011;410;48.954;9.474;2023-07-29T11:27:11;1.90;;;1.67;;
846;SDS011;410;48.954;9.474;2023-07-29T11:29:15;3.10;;;1.40;;
846;SDS011;410;48.954;9.474;2023-07-29T11:31:19;1.93;;;1.23;;
846;SDS011;410;48.954;9.474;2023-07-29T11:33:23;2.37;;;1.50;;
846;SDS011;410;48.954;9.474;2023-07-29T11:35:28;2.40;;;1.60;;
846;SDS011;410;48.954;9.474;2023-07-29T11:37:32;2.50;;;1.50;;
846;SDS011;410;48.954;9.474;2023-07-29T11:39:39;2.30;;;1.67;;
846;SDS011;410;48.954;9.474;2023-07-29T11:41:42;2.10;;;1.57;;
846;SDS011;410;48.954;9.474;2023-07-29T11:43:45;2.17;;;1.50;;
846;SDS011;410;48.954;9.474;2023-07-29T11:45:49;2.30;;;1.40;;
846;SDS011;410;48.954;9.474;2023-07-29T11:47:53;3.07;;;1.50;;
846;SDS011;410;48.954;9.474;2023-07-29T11:49:58;2.10;;;1.27;;
846;SDS011;410;48.954;9.474;2023-07-29T11:52:04;2.43;;;1.93;;
846;SDS011;410;48.954;9.474;2023-07-29T11:54:09;1.83;;;1.23;;
846;SDS011;410;48.954;9.474;2023-07-29T11:56:13;1.70;;;1.20;;
846;SDS011;410;48.954;9.474;2023-07-29T11:58:16;1.70;;;1.10;;
846;SDS011;410;48.954;9.474;2023-07-29T12:00:19;2.87;;;1.20;;
846;SDS011;410;48.954;9.474;2023-07-29T12:02:23;2.20;;;1.33;;
846;SDS011;410;48.954;9.474;2023-07-29T12:04:27;2.20;;;1.60;;
846;SDS011;410;48.954;9.474;2023-07-29T12:06:29;2.53;;;1.47;;
846;SDS011;410;48.954;9.474;2023-07-29T12:08:34;2.27;;;1.33;;
846;SDS011;410;48.954;9.474;2023-07-29T12:10:37;1.90;;;1.50;;
846;SDS011;410;48.954;9.474;2023-07-29T12:12:43;1.80;;;1.20;;
846;SDS011;410;48.954;9.474;2023-07-29T12:14:46;2.30;;;1.57;;
846;SDS011;410;48.954;9.474;2023-07-29T12:16:49;1.90;;;1.23;;
846;SDS011;410;48.954;9.474;2023-07-29T12:18:53;1.73;;;1.20;;
846;SDS011;410;48.954;9.474;2023-07-29T12:20:56;2.77;;;1.40;;
846;SDS011;410;48.954;9.474;2023-07-29T12:23:00;2.00;;;1.40;;
846;SDS011;410;48.954;9.474;2023-07-29T12:25:06;1.83;;;1.30;;
846;SDS011;410;48.954;9.474;2023-07-29T12:27:12;2.00;;;1.30;;
846;SDS011;410;48.954;9.474;2023-07-29T12:29:17;2.10;;;1.30;;
846;SDS011;410;48.954;9.474;2023-07-29T12:31:22;2.43;;;1.60;;
846;SDS011;410;48.954;9.474;2023-07-29T12:33:33;1.90;;;1.27;;
846;SDS011;410;48.954;9.474;2023-07-29T12:35:37;1.70;;;1.27;;
846;SDS011;410;48.954;9.474;2023-07-29T12:37:41;1.90;;;1.20;;
846;SDS011;410;48.954;9.474;2023-07-29T12:39:44;1.90;;;1.30;;
846;SDS011;410;48.954;9.474;2023-07-29T12:41:49;2.23;;;1.43;;
846;SDS011;410;48.954;9.474;2023-07-29T12:43:53;2.37;;;1.40;;
846;SDS011;410;48.954;9.474;2023-07-29T12:45:56;1.80;;;1.30;;
846;SDS011;410;48.954;9.474;2023-07-29T12:47:59;2.10;;;1.40;;
846;SDS011;410;48.954;9.474;2023-07-29T12:50:03;1.87;;;1.30;;
846;SDS011;410;48.954;9.474;2023-07-29T12:52:07;3.30;;;1.70;;
846;SDS011;410;48.954;9.474;2023-07-29T12:54:10;2.00;;;1.23;;
846;SDS011;410;48.954;9.474;2023-07-29T12:56:13;2.10;;;1.37;;
846;SDS011;410;48.954;9.474;2023-07-29T12:58:17;3.07;;;1.57;;
846;SDS011;410;48.954;9.474;2023-07-29T13:00:20;2.70;;;1.80;;
846;SDS011;410;48.954;9.474;2023-07-29T13:02:23;2.80;;;2.20;;
846;SDS011;410;48.954;9.474;2023-07-29T13:04:26;3.83;;;3.00;;
846;SDS011;410;48.954;9.474;2023-07-29T13:06:28;2.20;;;1.57;;
846;SDS011;410;48.954;9.474;2023-07-29T13:08:33;2.30;;;1.40;;
846;SDS011;410;48.954;9.474;2023-07-29T13:10:36;2.10;;;1.43;;
846;SDS011;410;48.954;9.474;2023-07-29T13:12:40;2.20;;;1.53;;
846;SDS011;410;48.954;9.474;2023-07-29T13:14:44;2.30;;;1.70;;
846;SDS011;410;48.954;9.474;2023-07-29T13:16:47;2.83;;;2.00;;